Time;durP1;ratioP1;P1;durP2;ratioP2;P2;SDS_P1;SDS_P2;PMS_P1;PMS_P2;Temp;Humidity;BMP_temperature;BMP_pressure;BME280_temperature;BME280_humidity;BME280_pressure;Samples;Min_cycle;Max_cycle;Signal;HPM_P1;HPM_P2
2023/12/12 00:02:04;;;;;;;7.57;1.80;;;;;6.10;93460.00;;;;7384104;19;20152;-74
2023/12/12 00:04:38;;;;;;;18.83;2.47;;;;;6.20;93463.00;;;;7383293;19;20160;-73
2023/12/12 00:07:12;;;;;;;8.23;2.03;;;;;6.10;93452.00;;;;7383458;19;20482;-73
2023/12/12 00:09:40;;;;;;;11.60;2.00;;;;;6.20;93458.00;;;;7383283;19;20137;-75
2023/12/12 00:12:14;;;;;;;12.40;2.63;;;;;6.10;93458.00;;;;7384610;19;20480;-73
2023/12/12 00:14:48;;;;;;;10.67;1.97;;;;;6.00;93459.00;;;;7382722;19;20588;-73
2023/12/12 00:17:16;;;;;;;10.77;1.93;;;;;5.90;93455.00;;;;7383268;19;20156;-74
2023/12/12 00:19:50;;;;;;;10.60;2.00;;;;;6.00;93458.00;;;;7386287;19;20633;-73
2023/12/12 00:22:24;;;;;;;5.43;2.07;;;;;6.00;93463.00;;;;7390531;19;20216;-74
2023/12/12 00:24:58;;;;;;;11.53;2.23;;;;;6.00;93449.00;;;;7384071;19;20150;-74
2023/12/12 00:27:26;;;;;;;8.10;2.00;;;;;6.20;93462.00;;;;7387831;19;20129;-74
2023/12/12 00:30:00;;;;;;;13.43;2.10;;;;;5.90;93471.00;;;;7390408;19;20155;-73
2023/12/12 00:32:28;;;;;;;12.27;2.07;;;;;5.80;93464.00;;;;7390636;19;20207;-75
2023/12/12 00:35:02;;;;;;;10.43;2.00;;;;;5.60;93475.00;;;;7390740;19;20137;-74
2023/12/12 00:37:37;;;;;;;7.27;1.53;;;;;5.50;93476.00;;;;7389045;19;20157;-75
2023/12/12 00:40:12;;;;;;;9.07;1.57;;;;;5.50;93469.00;;;;7390073;19;20140;-73
2023/12/12 00:42:40;;;;;;;6.03;1.77;;;;;5.50;93463.00;;;;7391411;19;20133;-75
2023/12/12 00:45:14;;;;;;;9.30;1.90;;;;;5.50;93470.00;;;;7389256;19;20167;-75
2023/12/12 00:47:42;;;;;;;12.53;2.17;;;;;5.60;93473.00;;;;7389716;19;20152;-75
2023/12/12 00:50:17;;;;;;;10.97;2.17;;;;;5.70;93485.00;;;;7390245;19;20152;-75
2023/12/12 00:52:45;;;;;;;6.03;1.77;;;;;5.80;93480.00;;;;7389848;19;20181;-75
2023/12/12 00:55:19;;;;;;;9.20;2.00;;;;;5.70;93488.00;;;;7390034;19;20133;-75
2023/12/12 00:58:01;;;;;;;5.60;1.57;;;;;5.60;93480.00;;;;7389993;19;20667;-75
2023/12/12 01:00:36;;;;;;;12.30;2.20;;;;;5.50;93488.00;;;;7389477;19;20511;-75
2023/12/12 01:03:11;;;;;;;10.20;1.73;;;;;5.60;93483.00;;;;7390846;19;20488;-74
2023/12/12 01:05:39;;;;;;;7.37;2.17;;;;;5.60;93487.00;;;;7390422;19;20476;-74
2023/12/12 01:08:13;;;;;;;9.20;2.10;;;;;5.60;93488.00;;;;7390902;19;20155;-75
2023/12/12 01:10:40;;;;;;;7.97;1.73;;;;;5.60;93481.00;;;;7391200;19;20593;-75
2023/12/12 01:13:08;;;;;;;11.43;1.73;;;;;5.50;93478.00;;;;7389964;19;20530;-75
2023/12/12 01:15:42;;;;;;;8.07;2.03;;;;;5.50;93478.00;;;;7391379;19;23797;-75
2023/12/12 01:18:10;;;;;;;7.80;1.63;;;;;5.20;93474.00;;;;7391359;19;20140;-76
2023/12/12 01:20:44;;;;;;;8.80;2.33;;;;;5.10;93478.00;;;;7389867;19;20140;-74
2023/12/12 01:23:12;;;;;;;7.90;1.50;;;;;5.00;93482.00;;;;7391716;19;20605;-74
2023/12/12 01:25:46;;;;;;;11.30;2.37;;;;;4.80;93471.00;;;;7390031;19;22868;-74
2023/12/12 01:28:20;;;;;;;5.53;1.70;;;;;4.70;93465.00;;;;7391415;19;20125;-75
2023/12/12 01:30:54;;;;;;;9.97;1.73;;;;;4.70;93461.00;;;;7384787;19;20511;-75
2023/12/12 01:33:23;;;;;;;6.47;1.80;;;;;4.70;93458.00;;;;7388901;19;20178;-75
2023/12/12 01:35:57;;;;;;;7.30;1.63;;;;;4.60;93443.00;;;;7389889;19;20128;-74
2023/12/12 01:38:25;;;;;;;5.67;1.57;;;;;4.50;93447.00;;;;7389098;19;20153;-76
2023/12/12 01:41:00;;;;;;;11.50;1.70;;;;;4.40;93455.00;;;;7389501;19;20145;-74
2023/12/12 01:43:32;;;;;;;12.00;1.90;;;;;4.30;93449.00;;;;7390304;19;20149;-74
2023/12/12 01:46:08;;;;;;;14.97;2.53;;;;;4.20;93453.00;;;;7390346;19;20514;-75
2023/12/12 01:48:43;;;;;;;9.77;2.33;;;;;4.00;93459.00;;;;7389852;19;20181;-73
2023/12/12 01:51:19;;;;;;;11.60;2.17;;;;;3.90;93462.00;;;;7389889;19;20143;-76
2023/12/12 01:53:53;;;;;;;4.30;1.37;;;;;3.70;93462.00;;;;7387342;19;20652;-76
2023/12/12 01:56:21;;;;;;;7.63;1.67;;;;;3.70;93458.00;;;;7389604;19;20152;-75
2023/12/12 01:59:02;;;;;;;21.10;2.93;;;;;3.80;93447.00;;;;7386762;19;20151;-76
2023/12/12 02:01:30;;;;;;;11.10;2.50;;;;;3.90;93446.00;;;;7386893;19;20548;-75
2023/12/12 02:04:06;;;;;;;10.40;2.37;;;;;3.90;93452.00;;;;7388840;19;20135;-76
2023/12/12 02:06:43;;;;;;;11.63;2.07;;;;;3.90;93444.00;;;;7386868;19;20611;-75
2023/12/12 02:09:11;;;;;;;11.17;2.27;;;;;3.70;93447.00;;;;7387046;19;20168;-78
2023/12/12 02:11:45;;;;;;;7.30;2.27;;;;;3.60;93431.00;;;;7386504;19;20615;-76
2023/12/12 02:14:19;;;;;;;9.17;2.50;;;;;3.40;93440.00;;;;7386665;19;20174;-76
2023/12/12 02:16:54;;;;;;;11.00;2.60;;;;;3.30;93435.00;;;;7386465;19;20141;-77
2023/12/12 02:19:28;;;;;;;8.50;2.20;;;;;3.30;93434.00;;;;7388413;19;20195;-75
2023/12/12 02:21:56;;;;;;;13.70;3.07;;;;;3.30;93423.00;;;;7387378;19;20140;-75
2023/12/12 02:24:30;;;;;;;8.50;2.40;;;;;3.20;93422.00;;;;7388253;19;20129;-76
2023/12/12 02:27:04;;;;;;;8.07;2.30;;;;;3.10;93418.00;;;;7388049;19;20146;-75
2023/12/12 02:29:33;;;;;;;12.40;2.67;;;;;3.20;93432.00;;;;7383325;19;20171;-76
2023/12/12 02:32:07;;;;;;;11.20;2.30;;;;;3.30;93434.00;;;;7388572;19;20140;-76
2023/12/12 02:34:34;;;;;;;15.40;2.97;;;;;3.20;93431.00;;;;7386379;19;20152;-75
2023/12/12 02:37:09;;;;;;;10.37;2.23;;;;;3.20;93428.00;;;;7387134;19;20583;-76
2023/12/12 02:39:43;;;;;;;12.03;2.20;;;;;3.30;93431.00;;;;7388296;19;20129;-76
2023/12/12 02:42:17;;;;;;;11.43;2.43;;;;;3.30;93435.00;;;;7386491;19;20137;-78
2023/12/12 02:44:51;;;;;;;12.00;2.17;;;;;3.30;93430.00;;;;7386771;19;20615;-76
2023/12/12 02:47:20;;;;;;;15.60;2.67;;;;;3.30;93432.00;;;;7386828;19;20133;-76
2023/12/12 02:49:54;;;;;;;10.93;2.30;;;;;3.30;93430.00;;;;7388124;19;20132;-76
2023/12/12 02:52:22;;;;;;;12.77;2.20;;;;;3.20;93428.00;;;;7386380;19;20635;-75
2023/12/12 02:54:56;;;;;;;7.97;2.40;;;;;3.20;93425.00;;;;7385743;19;20140;-75
2023/12/12 02:57:30;;;;;;;8.60;3.03;;;;;3.40;93424.00;;;;7388410;19;20129;-75
2023/12/12 03:00:05;;;;;;;9.67;2.17;;;;;3.40;93423.00;;;;7387352;19;20611;-74
2023/12/12 03:02:39;;;;;;;16.40;2.47;;;;;3.30;93412.00;;;;7386800;19;20145;-73
2023/12/12 03:05:07;;;;;;;7.57;2.13;;;;;3.50;93413.00;;;;7386188;19;20136;-74
2023/12/12 03:07:41;;;;;;;8.67;1.80;;;;;3.40;93423.00;;;;7386820;19;20136;-72
2023/12/12 03:10:09;;;;;;;7.87;1.87;;;;;3.20;93407.00;;;;7386942;19;20129;-73
2023/12/12 03:12:43;;;;;;;6.33;1.53;;;;;3.10;93402.00;;;;7386200;19;20175;-76
2023/12/12 03:15:17;;;;;;;11.87;1.97;;;;;3.00;93409.00;;;;7386440;19;20544;-73
2023/12/12 03:17:46;;;;;;;12.13;1.93;;;;;3.30;93413.00;;;;7387135;19;20515;-73
2023/12/12 03:20:13;;;;;;;15.50;1.77;;;;;3.20;93407.00;;;;7385794;19;20144;-72
2023/12/12 03:22:48;;;;;;;8.67;2.57;;;;;3.10;93411.00;;;;7387062;19;20186;-73
2023/12/12 03:25:16;;;;;;;13.80;2.07;;;;;3.10;93413.00;;;;7385312;19;20143;-76
2023/12/12 03:27:50;;;;;;;7.53;1.67;;;;;3.20;93400.00;;;;7385210;19;20216;-73
2023/12/12 03:30:18;;;;;;;6.23;1.90;;;;;3.30;93400.00;;;;7383794;19;20208;-72
2023/12/12 03:32:53;;;;;;;13.17;1.80;;;;;3.40;93381.00;;;;7386084;19;20137;-73
2023/12/12 03:35:27;;;;;;;8.37;1.77;;;;;3.40;93386.00;;;;7385316;19;20160;-72
2023/12/12 03:38:01;;;;;;;10.50;2.10;;;;;3.40;93379.00;;;;7385331;19;20157;-72
2023/12/12 03:40:29;;;;;;;14.27;2.43;;;;;3.40;93369.00;;;;7386554;19;20521;-73
2023/12/12 03:42:56;;;;;;;8.70;2.00;;;;;3.50;93354.00;;;;7385582;19;20241;-73
2023/12/12 03:45:30;;;;;;;7.13;1.67;;;;;3.50;93352.00;;;;7386617;19;20137;-73
2023/12/12 03:47:58;;;;;;;7.97;1.67;;;;;3.60;93346.00;;;;7385060;19;20140;-73
2023/12/12 03:50:32;;;;;;;7.27;2.47;;;;;3.40;93338.00;;;;7386869;19;20134;-73
2023/12/12 03:53:00;;;;;;;6.33;2.30;;;;;3.40;93337.00;;;;7384611;19;20149;-74
2023/12/12 03:55:34;;;;;;;9.63;2.10;;;;;3.30;93340.00;;;;7389891;19;20148;-73
2023/12/12 03:58:03;;;;;;;5.93;2.07;;;;;3.30;93343.00;;;;7393728;19;20475;-73
2023/12/12 04:00:43;;;;;;;6.17;1.83;;;;;3.30;93348.00;;;;7392364;19;20606;-74
2023/12/12 04:03:11;;;;;;;5.17;1.87;;;;;3.40;93354.00;;;;7393270;19;21752;-74
2023/12/12 04:05:46;;;;;;;4.40;1.60;;;;;3.60;93346.00;;;;7392903;19;20469;-72
2023/12/12 04:08:14;;;;;;;7.50;1.60;;;;;3.80;93352.00;;;;7392751;19;20608;-74
2023/12/12 04:10:48;;;;;;;8.70;2.43;;;;;3.90;93351.00;;;;7392894;19;20132;-73
2023/12/12 04:13:18;;;;;;;5.73;2.10;;;;;3.70;93352.00;;;;7390811;19;20644;-72
2023/12/12 04:15:53;;;;;;;9.83;1.87;;;;;3.50;93342.00;;;;7392906;19;20136;-75
2023/12/12 04:18:21;;;;;;;6.33;1.70;;;;;3.30;93350.00;;;;7391493;19;20156;-73
2023/12/12 04:20:56;;;;;;;8.80;1.70;;;;;3.10;93337.00;;;;7389962;19;20181;-72
2023/12/12 04:23:30;;;;;;;7.93;1.57;;;;;3.10;93334.00;;;;7392499;19;20604;-72
2023/12/12 04:26:04;;;;;;;6.50;2.00;;;;;3.00;93339.00;;;;7390676;19;20596;-73
2023/12/12 04:28:32;;;;;;;3.77;1.83;;;;;3.00;93338.00;;;;7390212;19;20133;-73
2023/12/12 04:31:12;;;;;;;7.30;1.83;;;;;2.90;93334.00;;;;7390266;19;20600;-73
2023/12/12 04:33:46;;;;;;;6.47;1.70;;;;;2.80;93342.00;;;;7391115;19;20234;-73
2023/12/12 04:36:14;;;;;;;8.80;3.30;;;;;3.00;93337.00;;;;7389784;19;20632;-75
2023/12/12 04:38:54;;;;;;;11.17;2.90;;;;;3.00;93334.00;;;;7391131;19;20583;-72
2023/12/12 04:41:29;;;;;;;6.93;1.83;;;;;3.10;93331.00;;;;7386794;19;20149;-73
2023/12/12 04:44:03;;;;;;;7.83;1.90;;;;;3.20;93325.00;;;;7389152;19;20495;-74
2023/12/12 04:46:37;;;;;;;10.10;1.93;;;;;3.20;93343.00;;;;7391446;19;20131;-74
2023/12/12 04:49:11;;;;;;;4.07;1.80;;;;;3.20;93338.00;;;;7389568;19;20151;-73
2023/12/12 04:51:39;;;;;;;4.87;2.20;;;;;3.40;93335.00;;;;7389652;19;20180;-73
2023/12/12 04:54:13;;;;;;;4.87;2.33;;;;;3.50;93337.00;;;;7388984;19;20129;-74
2023/12/12 04:56:41;;;;;;;5.30;1.90;;;;;3.50;93316.00;;;;7391394;19;20612;-74
2023/12/12 04:59:28;;;;;;;6.90;1.67;;;;;3.60;93319.00;;;;7389017;19;20654;-73
2023/12/12 05:02:05;;;;;;;6.33;1.77;;;;;3.50;93329.00;;;;7390161;19;20136;-74
2023/12/12 05:04:39;;;;;;;4.73;1.60;;;;;3.60;93326.00;;;;7387596;19;20207;-73
2023/12/12 05:07:15;;;;;;;6.77;1.63;;;;;3.80;93331.00;;;;7388793;19;20228;-75
2023/12/12 05:09:44;;;;;;;5.43;1.60;;;;;3.60;93329.00;;;;7391179;19;20177;-74
2023/12/12 05:12:18;;;;;;;3.00;1.50;;;;;3.40;93318.00;;;;7388660;19;20588;-73
2023/12/12 05:14:52;;;;;;;4.60;1.50;;;;;3.40;93327.00;;;;7389554;19;20150;-74
2023/12/12 05:17:26;;;;;;;6.40;1.73;;;;;3.40;93326.00;;;;7389891;19;20220;-74
2023/12/12 05:19:56;;;;;;;5.00;1.67;;;;;3.40;93326.00;;;;7388931;19;20153;-73
2023/12/12 05:22:31;;;;;;;6.03;1.30;;;;;3.40;93322.00;;;;7389191;19;20148;-74
2023/12/12 05:24:58;;;;;;;3.93;1.63;;;;;3.40;93312.00;;;;7389779;19;20192;-74
2023/12/12 05:27:35;;;;;;;3.47;1.70;;;;;3.30;93309.00;;;;7386720;19;20139;-74
2023/12/12 05:30:09;;;;;;;5.70;1.70;;;;;3.40;93304.00;;;;7390090;19;20153;-74
2023/12/12 05:32:47;;;;;;;3.87;1.57;;;;;3.30;93299.00;;;;7388062;19;20194;-73
2023/12/12 05:35:22;;;;;;;4.90;1.50;;;;;3.40;93292.00;;;;7388973;19;20188;-73
2023/12/12 05:37:50;;;;;;;5.67;1.70;;;;;3.50;93292.00;;;;7389566;19;20129;-75
2023/12/12 05:40:24;;;;;;;4.63;1.57;;;;;3.50;93298.00;;;;7388105;19;20604;-72
2023/12/12 05:42:52;;;;;;;8.53;1.60;;;;;3.60;93294.00;;;;7387358;19;20606;-73
2023/12/12 05:45:26;;;;;;;5.50;1.40;;;;;3.60;93295.00;;;;7388646;19;20144;-73
2023/12/12 05:47:54;;;;;;;3.13;1.40;;;;;3.70;93298.00;;;;7388215;19;20148;-74
2023/12/12 05:50:30;;;;;;;6.27;1.30;;;;;3.80;93290.00;;;;7387927;19;20156;-74
2023/12/12 05:53:04;;;;;;;7.70;1.67;;;;;3.90;93303.00;;;;7388394;19;20572;-75
2023/12/12 05:55:31;;;;;;;7.50;2.70;;;;;3.90;93298.00;;;;7387288;19;20591;-75
2023/12/12 05:58:06;;;;;;;2.97;1.50;;;;;3.90;93294.00;;;;7387767;19;20180;-74
2023/12/12 06:00:40;;;;;;;8.43;1.50;;;;;3.70;93298.00;;;;7388468;19;20152;-75
2023/12/12 06:03:15;;;;;;;4.23;1.70;;;;;3.60;93294.00;;;;7387571;19;20219;-75
2023/12/12 06:05:43;;;;;;;5.23;1.30;;;;;3.60;93293.00;;;;7387432;19;20125;-75
2023/12/12 06:08:18;;;;;;;2.10;1.40;;;;;3.70;93298.00;;;;7386661;19;20470;-72
2023/12/12 06:10:49;;;;;;;5.50;1.50;;;;;3.50;93284.00;;;;7387601;19;20137;-74
2023/12/12 06:13:23;;;;;;;6.40;1.80;;;;;3.60;93288.00;;;;7386539;19;20156;-74
2023/12/12 06:15:51;;;;;;;4.87;1.73;;;;;3.60;93283.00;;;;7386541;19;20621;-78
2023/12/12 06:18:19;;;;;;;5.77;1.70;;;;;3.50;93280.00;;;;7386158;19;20152;-75
2023/12/12 06:20:54;;;;;;;4.50;2.10;;;;;3.50;93274.00;;;;7386499;19;20159;-75
2023/12/12 06:23:29;;;;;;;3.87;1.83;;;;;3.60;93288.00;;;;7387607;19;20673;-75
2023/12/12 06:26:03;;;;;;;2.37;1.63;;;;;3.70;93287.00;;;;7386520;19;20606;-75
2023/12/12 06:28:38;;;;;;;9.07;2.17;;;;;3.60;93281.00;;;;7383218;19;20160;-73
2023/12/12 06:31:12;;;;;;;4.73;2.03;;;;;3.50;93269.00;;;;7386850;19;20152;-73
2023/12/12 06:33:40;;;;;;;5.93;2.20;;;;;3.40;93269.00;;;;7386293;19;20512;-73
2023/12/12 06:36:14;;;;;;;3.40;1.90;;;;;3.30;93273.00;;;;7387939;19;20580;-73
2023/12/12 06:38:45;;;;;;;8.60;2.50;;;;;3.30;93263.00;;;;7386741;19;20185;-75
2023/12/12 06:41:22;;;;;;;7.27;2.60;;;;;3.40;93261.00;;;;7386752;19;20642;-75
2023/12/12 06:43:51;;;;;;;8.83;3.37;;;;;3.40;93244.00;;;;7386081;19;20161;-74
2023/12/12 06:46:25;;;;;;;9.67;3.17;;;;;3.50;93251.00;;;;7386359;19;20144;-72
2023/12/12 06:48:53;;;;;;;8.23;3.90;;;;;3.60;93259.00;;;;7387292;19;21047;-72
2023/12/12 06:51:21;;;;;;;7.33;3.97;;;;;3.70;93260.00;;;;7386453;19;20557;-73
2023/12/12 06:53:58;;;;;;;9.83;4.33;;;;;3.90;93268.00;;;;7385745;19;20149;-75
2023/12/12 06:56:26;;;;;;;14.13;5.97;;;;;3.80;93270.00;;;;7388307;19;21142;-73
2023/12/12 06:59:06;;;;;;;32.77;8.40;;;;;3.90;93274.00;;;;7387136;19;20156;-73
2023/12/12 07:01:34;;;;;;;16.47;6.60;;;;;4.00;93272.00;;;;7385747;19;20600;-74
2023/12/12 07:04:08;;;;;;;14.73;6.30;;;;;4.10;93277.00;;;;7386426;19;20148;-75
2023/12/12 07:06:36;;;;;;;10.97;6.30;;;;;4.10;93276.00;;;;7387869;19;20125;-73
2023/12/12 07:09:12;;;;;;;14.50;5.83;;;;;4.20;93283.00;;;;7386655;19;20125;-72
2023/12/12 07:11:40;;;;;;;18.20;6.37;;;;;4.30;93276.00;;;;7387590;19;20136;-72
2023/12/12 07:14:14;;;;;;;18.87;6.93;;;;;4.40;93294.00;;;;7386574;19;20179;-72
2023/12/12 07:16:42;;;;;;;19.47;6.83;;;;;4.50;93294.00;;;;7385510;19;20148;-74
2023/12/12 07:19:16;;;;;;;18.63;6.73;;;;;4.60;93287.00;;;;7386176;19;20231;-74
2023/12/12 07:21:52;;;;;;;17.10;7.40;;;;;4.60;93294.00;;;;7386026;19;20772;-75
2023/12/12 07:24:27;;;;;;;15.00;6.87;;;;;4.50;93299.00;;;;7382493;19;20217;-75
2023/12/12 07:27:01;;;;;;;15.67;6.77;;;;;4.70;93281.00;;;;7384704;19;20172;-75
2023/12/12 07:29:29;;;;;;;19.17;7.63;;;;;4.70;93237.00;;;;7389655;19;20596;-74
2023/12/12 07:32:03;;;;;;;13.77;6.90;;;;;4.60;93256.00;;;;7392209;19;20149;-74
2023/12/12 07:34:31;;;;;;;16.83;7.50;;;;;4.50;93245.00;;;;7393123;19;20133;-75
2023/12/12 07:37:06;;;;;;;14.53;7.60;;;;;4.50;93266.00;;;;7391964;19;20199;-74
2023/12/12 07:39:33;;;;;;;10.87;6.03;;;;;4.50;93265.00;;;;7388241;19;20168;-73
2023/12/12 07:42:07;;;;;;;15.93;6.93;;;;;4.50;93268.00;;;;7392345;19;20143;-75
2023/12/12 07:44:35;;;;;;;11.90;7.20;;;;;4.50;93269.00;;;;7391593;19;20136;-76
2023/12/12 07:47:09;;;;;;;13.47;6.57;;;;;4.70;93258.00;;;;7391611;19;20179;-74
2023/12/12 07:49:45;;;;;;;14.37;7.03;;;;;4.70;93260.00;;;;7391454;19;20664;-74
2023/12/12 07:52:19;;;;;;;10.77;7.10;;;;;4.70;93266.00;;;;7391524;19;20148;-74
2023/12/12 07:54:53;;;;;;;12.60;6.40;;;;;4.70;93263.00;;;;7392519;19;20141;-74
2023/12/12 07:57:27;;;;;;;13.03;6.40;;;;;4.80;93253.00;;;;7392615;19;20478;-74
2023/12/12 08:00:16;;;;;;;9.90;5.97;;;;;4.90;93259.00;;;;7390358;19;20696;-74
2023/12/12 08:02:52;;;;;;;13.43;5.70;;;;;5.10;93254.00;;;;7391846;19;20141;-75
2023/12/12 08:05:26;;;;;;;7.67;5.90;;;;;5.20;93233.00;;;;7391019;19;20148;-75
2023/12/12 08:07:54;;;;;;;12.37;5.60;;;;;5.30;93223.00;;;;7391994;19;20160;-74
2023/12/12 08:10:28;;;;;;;10.57;5.70;;;;;5.20;93220.00;;;;7390776;19;20147;-74
2023/12/12 08:13:03;;;;;;;8.40;4.70;;;;;5.20;93226.00;;;;7390986;19;20695;-74
2023/12/12 08:15:38;;;;;;;10.33;5.57;;;;;5.30;93213.00;;;;7392434;19;20133;-74
2023/12/12 08:18:12;;;;;;;11.13;5.00;;;;;5.30;93209.00;;;;7392901;19;20150;-75
2023/12/12 08:20:40;;;;;;;7.53;4.87;;;;;5.40;93205.00;;;;7391793;19;20600;-74
2023/12/12 08:23:07;;;;;;;10.77;5.60;;;;;5.30;93205.00;;;;7390469;19;20159;-74
2023/12/12 08:25:41;;;;;;;7.53;4.83;;;;;5.40;93205.00;;;;7390596;19;20140;-73
2023/12/12 08:28:15;;;;;;;8.77;4.30;;;;;5.40;93198.00;;;;7390454;19;20511;-74
2023/12/12 08:30:43;;;;;;;6.30;3.67;;;;;5.60;93198.00;;;;7390374;19;20177;-74
2023/12/12 08:33:11;;;;;;;9.60;4.10;;;;;5.80;93190.00;;;;7389519;19;20178;-73
2023/12/12 08:35:46;;;;;;;10.93;4.40;;;;;5.80;93194.00;;;;7391553;19;20129;-74
2023/12/12 08:38:20;;;;;;;11.70;4.57;;;;;6.10;93188.00;;;;7389505;19;20144;-73
2023/12/12 08:40:48;;;;;;;17.33;4.40;;;;;6.10;93191.00;;;;7388301;19;20125;-77
2023/12/12 08:43:23;;;;;;;10.77;4.73;;;;;6.20;93198.00;;;;7391038;19;20193;-74
2023/12/12 08:45:52;;;;;;;12.33;4.53;;;;;6.20;93189.00;;;;7389536;19;20156;-75
2023/12/12 08:48:26;;;;;;;10.03;4.73;;;;;6.20;93200.00;;;;7389426;19;20153;-75
2023/12/12 08:51:00;;;;;;;13.57;4.70;;;;;6.40;93190.00;;;;7387151;19;20162;-76
2023/12/12 08:53:34;;;;;;;10.17;4.23;;;;;6.40;93208.00;;;;7389286;19;20491;-75
2023/12/12 08:56:04;;;;;;;11.70;4.70;;;;;6.50;93212.00;;;;7389494;19;20125;-75
2023/12/12 08:58:54;;;;;;;9.17;5.07;;;;;6.60;93203.00;;;;7388749;19;20176;-75
2023/12/12 09:01:29;;;;;;;11.67;5.20;;;;;6.60;93211.00;;;;7391479;19;20168;-74
2023/12/12 09:04:03;;;;;;;11.67;4.60;;;;;6.70;93213.00;;;;7390830;19;20128;-76
2023/12/12 09:06:31;;;;;;;15.67;4.90;;;;;6.70;93210.00;;;;7389164;19;20633;-75
2023/12/12 09:08:59;;;;;;;8.73;4.50;;;;;6.70;93215.00;;;;7390227;19;20587;-75
2023/12/12 09:11:35;;;;;;;8.90;4.20;;;;;6.70;93212.00;;;;7389928;19;20132;-76
2023/12/12 09:14:03;;;;;;;10.57;4.20;;;;;6.80;93206.00;;;;7390013;19;20180;-74
2023/12/12 09:16:31;;;;;;;9.03;3.87;;;;;6.80;93197.00;;;;7389406;19;20168;-76
2023/12/12 09:19:06;;;;;;;7.40;3.23;;;;;6.70;93193.00;;;;7390657;19;20172;-75
2023/12/12 09:21:34;;;;;;;7.50;3.50;;;;;6.90;93196.00;;;;7388861;19;20141;-76
2023/12/12 09:24:09;;;;;;;7.33;3.10;;;;;6.70;93184.00;;;;7388867;19;20151;-76
2023/12/12 09:26:36;;;;;;;13.13;3.13;;;;;6.70;93191.00;;;;7389578;19;20156;-77
2023/12/12 09:29:12;;;;;;;4.20;2.53;;;;;6.80;93191.00;;;;7390774;19;20199;-76
2023/12/12 09:31:49;;;;;;;3.73;2.43;;;;;6.80;93196.00;;;;7388279;19;20616;-73
2023/12/12 09:34:23;;;;;;;3.93;2.60;;;;;6.70;93195.00;;;;7388688;19;20144;-73
2023/12/12 09:36:57;;;;;;;3.13;2.13;;;;;6.90;93194.00;;;;7387861;19;20164;-74
2023/12/12 09:39:31;;;;;;;4.10;2.30;;;;;6.80;93180.00;;;;7388351;19;20161;-76
2023/12/12 09:42:11;;;;;;;5.97;2.27;;;;;6.90;93170.00;;;;7390574;19;20152;-73
2023/12/12 09:44:58;;;;;;;3.70;2.37;;;;;6.70;93161.00;;;;7388177;19;20618;-74
2023/12/12 09:47:33;;;;;;;3.83;2.60;;;;;6.80;93167.00;;;;7387886;19;20149;-74
2023/12/12 09:50:02;;;;;;;4.50;2.33;;;;;6.70;93167.00;;;;7388007;19;20152;-75
2023/12/12 09:52:37;;;;;;;3.50;2.60;;;;;6.80;93166.00;;;;7385543;19;20132;-76
2023/12/12 09:55:06;;;;;;;2.90;2.07;;;;;6.80;93158.00;;;;7388191;19;20146;-74
2023/12/12 09:57:40;;;;;;;3.53;2.07;;;;;6.90;93159.00;;;;7387822;19;20144;-75
2023/12/12 10:00:22;;;;;;;2.90;1.70;;;;;7.00;93144.00;;;;7387168;19;20197;-75
2023/12/12 10:02:51;;;;;;;5.17;1.97;;;;;6.90;93139.00;;;;7387388;19;20152;-77
2023/12/12 10:05:28;;;;;;;2.83;1.80;;;;;6.90;93145.00;;;;7387790;19;20147;-75
2023/12/12 10:07:56;;;;;;;2.47;2.00;;;;;7.00;93145.00;;;;7389763;19;20146;-76
2023/12/12 10:10:43;;;;;;;2.23;1.70;;;;;7.00;93159.00;;;;7388802;19;20200;-75
2023/12/12 10:13:18;;;;;;;1.90;1.60;;;;;7.00;93156.00;;;;7388018;19;20156;-75
2023/12/12 10:15:52;;;;;;;2.77;1.63;;;;;7.00;93143.00;;;;7387718;19;20153;-76
2023/12/12 10:18:22;;;;;;;3.30;1.70;;;;;7.00;93135.00;;;;7389310;19;20216;-77
2023/12/12 10:20:56;;;;;;;1.73;1.50;;;;;7.00;93140.00;;;;7389856;19;20200;-76
2023/12/12 10:23:28;;;;;;;3.33;1.77;;;;;7.00;93153.00;;;;7387535;19;20514;-78
2023/12/12 10:26:03;;;;;;;2.23;1.90;;;;;7.10;93144.00;;;;7384455;19;20159;-77
2023/12/12 10:28:37;;;;;;;3.30;1.80;;;;;7.00;93147.00;;;;7387904;19;20143;-77
2023/12/12 10:31:11;;;;;;;2.43;1.83;;;;;7.10;93136.00;;;;7388087;19;20617;-78
2023/12/12 10:33:39;;;;;;;2.10;1.80;;;;;7.10;93134.00;;;;7387340;19;20129;-77
2023/12/12 10:36:13;;;;;;;2.20;1.70;;;;;7.20;93132.00;;;;7389640;19;20132;-80
2023/12/12 10:38:48;;;;;;;2.63;1.73;;;;;7.30;93119.00;;;;7387246;19;20219;-78
2023/12/12 10:41:22;;;;;;;1.70;1.50;;;;;7.30;93108.00;;;;7387394;19;21645;-77
2023/12/12 10:44:01;;;;;;;2.57;1.60;;;;;7.40;93102.00;;;;7387062;19;20157;-77
2023/12/12 10:46:40;;;;;;;1.53;1.30;;;;;7.50;93098.00;;;;7386367;19;20129;-76
2023/12/12 10:49:15;;;;;;;2.73;1.40;;;;;7.40;93088.00;;;;7387573;19;20482;-78
2023/12/12 10:51:50;;;;;;;2.40;1.40;;;;;7.60;93095.00;;;;7389036;19;20524;-79
2023/12/12 10:54:22;;;;;;;1.27;1.10;;;;;7.60;93094.00;;;;7387136;19;20144;-79
2023/12/12 10:56:57;;;;;;;1.93;1.40;;;;;7.60;93089.00;;;;7386771;19;20623;-77
2023/12/12 10:59:27;;;;;;;1.83;1.43;;;;;7.60;93077.00;;;;7386407;19;20180;-77
2023/12/12 11:02:27;;;;;;;1.93;1.40;;;;;7.80;93068.00;;;;7386274;19;20157;-77
2023/12/12 11:04:56;;;;;;;1.47;1.30;;;;;8.10;93064.00;;;;7387443;19;20139;-77
2023/12/12 11:07:32;;;;;;;2.20;1.80;;;;;7.90;93052.00;;;;7386258;19;20588;-76
2023/12/12 11:10:10;;;;;;;1.58;1.45;;;;;8.00;93053.00;;;;7386558;19;20152;-77
2023/12/12 11:12:53;;;;;;;5.07;1.70;;;;;7.80;93047.00;;;;7386066;19;20174;-76
2023/12/12 11:15:29;;;;;;;2.63;1.60;;;;;7.80;93034.00;;;;7385591;19;20136;-78
2023/12/12 11:17:59;;;;;;;2.10;1.40;;;;;7.80;93034.00;;;;7387246;19;20609;-78
2023/12/12 11:20:40;;;;;;;3.10;1.67;;;;;8.00;93032.00;;;;7385673;19;20631;-78
2023/12/12 11:23:46;;;;;;;3.33;1.67;;;;;7.70;93021.00;;;;7385018;19;20607;-79
2023/12/12 11:26:17;;;;;;;3.15;2.15;;;;;7.70;93020.00;;;;7385506;19;20196;-74
2023/12/12 11:28:52;;;;;;;3.60;2.40;;;;;7.60;93026.00;;;;7385798;19;20640;-76
2023/12/12 11:31:27;;;;;;;5.77;2.63;;;;;7.50;93015.00;;;;7384994;19;20153;-79
2023/12/12 11:34:07;;;;;;;3.23;2.50;;;;;7.40;93009.00;;;;7386740;19;20140;-77
2023/12/12 11:36:54;;;;;;;3.83;2.70;;;;;7.50;93007.00;;;;7386137;19;20125;-80
2023/12/12 11:39:52;;;;;;;2.50;2.30;;;;;7.40;93007.00;;;;7386121;19;20129;-80
2023/12/12 11:42:29;;;;;;;4.60;2.57;;;;;7.50;92984.00;;;;7384304;19;20152;-77
2023/12/12 11:45:05;;;;;;;3.70;2.80;;;;;7.40;92971.00;;;;7385989;19;20137;-79
2023/12/12 11:47:40;;;;;;;3.40;2.43;;;;;7.40;92962.00;;;;7384488;19;20171;-79
2023/12/12 11:50:11;;;;;;;3.20;2.50;;;;;7.40;92964.00;;;;7386408;19;20125;-77
2023/12/12 11:52:47;;;;;;;2.63;2.40;;;;;7.30;92964.00;;;;7385469;19;20242;-77
2023/12/12 11:55:20;;;;;;;2.50;2.30;;;;;7.30;92959.00;;;;7387384;19;20133;-78
2023/12/12 11:58:04;;;;;;;2.40;2.20;;;;;7.40;92950.00;;;;7384995;19;20584;-80
2023/12/12 12:00:44;;;;;;;3.00;2.13;;;;;7.50;92946.00;;;;7382837;19;20160;-78
2023/12/12 12:03:21;;;;;;;2.60;2.30;;;;;7.50;92940.00;;;;7385747;19;20125;-79
2023/12/12 12:05:49;;;;;;;2.60;2.40;;;;;7.40;92936.00;;;;7385062;19;20176;-77
2023/12/12 12:08:23;;;;;;;2.57;2.13;;;;;7.40;92927.00;;;;7385735;19;20140;-78
2023/12/12 12:10:57;;;;;;;3.20;2.30;;;;;7.50;92931.00;;;;7383409;19;20133;-78
2023/12/12 12:13:38;;;;;;;5.78;2.33;;;;;7.50;92913.00;;;;7384297;19;20180;-79
2023/12/12 12:16:14;;;;;;;2.90;2.40;;;;;7.50;92903.00;;;;7388270;19;20589;-76
2023/12/12 12:18:43;;;;;;;271.40;17.57;;;;;7.60;92900.00;;;;7390600;19;20125;-78
2023/12/12 12:21:17;;;;;;;419.42;21.35;;;;;7.60;92905.00;;;;7391998;19;20592;-76
2023/12/12 12:23:45;;;;;;;43.13;5.90;;;;;7.60;92906.00;;;;7390800;19;20160;-77
2023/12/12 12:26:13;;;;;;;43.13;4.97;;;;;7.50;92912.00;;;;7387351;19;20153;-77
2023/12/12 12:28:48;;;;;;;73.43;5.57;;;;;7.40;92907.00;;;;7389598;19;20159;-78
2023/12/12 12:31:29;;;;;;;7.25;2.53;;;;;7.40;92923.00;;;;7391795;19;20195;-80
2023/12/12 12:33:57;;;;;;;3.03;1.70;;;;;7.40;92926.00;;;;7389751;19;20208;-78
2023/12/12 12:36:38;;;;;;;5.00;2.40;;;;;7.50;92909.00;;;;7391094;19;20152;-75
2023/12/12 12:39:13;;;;;;;9.30;5.50;;;;;7.60;92906.00;;;;7390894;19;20506;-77
2023/12/12 12:43:34;;;;;;;1.60;0.80;;;;;7.90;92900.00;;;;6913218;19;9911322;-78
2023/12/12 12:46:11;;;;;;;1.90;1.73;;;;;7.70;92917.00;;;;7421064;19;20162;-77
2023/12/12 12:48:39;;;;;;;0.75;0.75;;;;;7.90;92906.00;;;;7421197;19;20166;-78
2023/12/12 12:51:16;;;;;;;1.45;0.70;;;;;7.90;92907.00;;;;7420522;19;20486;-78
2023/12/12 12:53:44;;;;;;;0.90;0.90;;;;;7.70;92911.00;;;;7420017;19;20584;-78
2023/12/12 12:56:19;;;;;;;1.65;1.50;;;;;7.60;92912.00;;;;7419828;19;20132;-78